AAL154 KDCA-KCMH
Flight info
| Callsign | AAL154 |
|---|---|
| Flight time | 0h 59m |
| Altitude | 32000 |
| Route | WYNGS5 RAMAY Q72 HACKS SCRLT2 |
| Aircraft | B38M/M-SDE1FGHILORVWXY/HB1 |
Departure
| Time | 2026-04-23 00:51 |
|---|---|
| Airport | Ronald Reagan Washington National Airport (KDCA) |
Arrival
| Time | 2026-04-23 01:51 |
|---|---|
| Airport | John Glenn Columbus International Airport (KCMH) |
| Time | Latitude | Longitude | Altitude | Speed | Heading |
|---|---|---|---|---|---|
| 2026-04-23 00:37 | 38.85468 | -77.04195 | 28 ft | 0 kts | 169° |
| 2026-04-23 00:44 | 38.85483 | -77.04199 | 29 ft | 2 kts | 162° |
| 2026-04-23 00:45 | 38.85498 | -77.04207 | 29 ft | 2 kts | 161° |
| 2026-04-23 00:45 | 38.85512 | -77.04202 | 29 ft | 2 kts | 256° |
| 2026-04-23 00:45 | 38.85515 | -77.04183 | 29 ft | 1 kts | 256° |
| 2026-04-23 00:45 | 38.85515 | -77.04179 | 29 ft | 0 kts | 254° |
| 2026-04-23 00:47 | 38.85515 | -77.04180 | 29 ft | 1 kts | 242° |
| 2026-04-23 00:48 | 38.85496 | -77.04173 | 28 ft | 6 kts | 139° |
| 2026-04-23 00:48 | 38.85515 | -77.04094 | 28 ft | 13 kts | 43° |
| 2026-04-23 00:48 | 38.85538 | -77.04065 | 28 ft | 6 kts | 54° |
| 2026-04-23 00:48 | 38.85558 | -77.04041 | 29 ft | 6 kts | 21° |
| 2026-04-23 00:49 | 38.85613 | -77.04039 | 30 ft | 11 kts | 353° |
| 2026-04-23 00:49 | 38.85696 | -77.03999 | 31 ft | 16 kts | 55° |
| 2026-04-23 00:49 | 38.85816 | -77.03985 | 30 ft | 23 kts | 354° |
| 2026-04-23 00:49 | 38.85925 | -77.03995 | 29 ft | 11 kts | 356° |
| 2026-04-23 00:50 | 38.86017 | -77.03989 | 28 ft | 4 kts | 18° |
| 2026-04-23 00:50 | 38.86060 | -77.03968 | 27 ft | 8 kts | 29° |
| 2026-04-23 00:50 | 38.86088 | -77.03889 | 28 ft | 14 kts | 131° |
| 2026-04-23 00:50 | 38.86020 | -77.03861 | 26 ft | 6 kts | 176° |
| 2026-04-23 00:51 | 38.85883 | -77.03846 | 30 ft | 54 kts | 175° |
| 2026-04-23 00:51 | 38.85223 | -77.03778 | 29 ft | 134 kts | 175° |
| 2026-04-23 00:51 | 38.84509 | -77.03706 | 70 ft | 172 kts | 175° |
| 2026-04-23 00:51 | 38.83314 | -77.03590 | 929 ft | 174 kts | 179° |
| 2026-04-23 00:52 | 38.81666 | -77.03574 | 1459 ft | 179 kts | 182° |
| 2026-04-23 00:52 | 38.80439 | -77.03563 | 1441 ft | 174 kts | 182° |
| 2026-04-23 00:52 | 38.79615 | -77.03553 | 1496 ft | 179 kts | 182° |
| 2026-04-23 00:52 | 38.78300 | -77.03535 | 1896 ft | 198 kts | 182° |
| 2026-04-23 00:53 | 38.76865 | -77.03612 | 2378 ft | 212 kts | 198° |
| 2026-04-23 00:53 | 38.75595 | -77.04574 | 3011 ft | 219 kts | 232° |
| 2026-04-23 00:53 | 38.74912 | -77.06305 | 3685 ft | 226 kts | 261° |
| 2026-04-23 00:53 | 38.74771 | -77.08355 | 4409 ft | 231 kts | 272° |
| 2026-04-23 00:54 | 38.75022 | -77.10348 | 5060 ft | 230 kts | 287° |
| 2026-04-23 00:54 | 38.75451 | -77.12338 | 5722 ft | 232 kts | 286° |
| 2026-04-23 00:54 | 38.75864 | -77.14349 | 6361 ft | 234 kts | 286° |
| 2026-04-23 00:54 | 38.76270 | -77.16374 | 6981 ft | 238 kts | 286° |
| 2026-04-23 00:55 | 38.76692 | -77.18515 | 7579 ft | 256 kts | 286° |
| 2026-04-23 00:55 | 38.77133 | -77.20783 | 8385 ft | 263 kts | 287° |
| 2026-04-23 00:55 | 38.77568 | -77.23048 | 9357 ft | 266 kts | 287° |
| 2026-04-23 00:55 | 38.78015 | -77.25373 | 10175 ft | 272 kts | 287° |
| 2026-04-23 00:56 | 38.78483 | -77.27801 | 10690 ft | 289 kts | 287° |
| 2026-04-23 00:56 | 38.78977 | -77.30378 | 11120 ft | 307 kts | 287° |
| 2026-04-23 00:56 | 38.79494 | -77.33083 | 11713 ft | 318 kts | 287° |
| 2026-04-23 00:56 | 38.80023 | -77.35860 | 12608 ft | 320 kts | 287° |
| 2026-04-23 00:57 | 38.80558 | -77.38663 | 13327 ft | 326 kts | 287° |
| 2026-04-23 00:57 | 38.81096 | -77.41483 | 14064 ft | 329 kts | 287° |
| 2026-04-23 00:57 | 38.81643 | -77.44357 | 14724 ft | 333 kts | 287° |
| 2026-04-23 00:57 | 38.82194 | -77.47258 | 15413 ft | 335 kts | 287° |
| 2026-04-23 00:58 | 38.82749 | -77.50174 | 16054 ft | 338 kts | 287° |
| 2026-04-23 00:58 | 38.83307 | -77.53114 | 16704 ft | 341 kts | 287° |
| 2026-04-23 00:58 | 38.83868 | -77.56075 | 17327 ft | 344 kts | 287° |
| 2026-04-23 00:58 | 38.84437 | -77.59083 | 17941 ft | 346 kts | 287° |
| 2026-04-23 00:59 | 38.85008 | -77.62106 | 18501 ft | 349 kts | 287° |
| 2026-04-23 00:59 | 38.85572 | -77.65099 | 18974 ft | 352 kts | 287° |
| 2026-04-23 00:59 | 38.86150 | -77.68168 | 19467 ft | 355 kts | 287° |
| 2026-04-23 00:59 | 38.86731 | -77.71260 | 19937 ft | 358 kts | 287° |
| 2026-04-23 01:00 | 38.87317 | -77.74376 | 20411 ft | 360 kts | 287° |
| 2026-04-23 01:00 | 38.87905 | -77.77518 | 20868 ft | 363 kts | 287° |
| 2026-04-23 01:00 | 38.88498 | -77.80685 | 21309 ft | 366 kts | 287° |
| 2026-04-23 01:00 | 38.89095 | -77.83882 | 21748 ft | 369 kts | 287° |
| 2026-04-23 01:01 | 38.89695 | -77.87095 | 22186 ft | 372 kts | 287° |
| 2026-04-23 01:01 | 38.90298 | -77.90333 | 22615 ft | 375 kts | 287° |
| 2026-04-23 01:01 | 38.90905 | -77.93598 | 23017 ft | 377 kts | 287° |
| 2026-04-23 01:01 | 38.91515 | -77.96887 | 23415 ft | 380 kts | 287° |
| 2026-04-23 01:02 | 38.92129 | -78.00199 | 23769 ft | 383 kts | 287° |
| 2026-04-23 01:02 | 38.92744 | -78.03524 | 24105 ft | 384 kts | 287° |
| 2026-04-23 01:02 | 38.93360 | -78.06860 | 24448 ft | 386 kts | 287° |
| 2026-04-23 01:02 | 38.93973 | -78.10186 | 24795 ft | 387 kts | 287° |
| 2026-04-23 01:03 | 38.94593 | -78.13553 | 25129 ft | 389 kts | 287° |
| 2026-04-23 01:03 | 38.95214 | -78.16937 | 25460 ft | 390 kts | 287° |
| 2026-04-23 01:03 | 38.95838 | -78.20338 | 25787 ft | 392 kts | 287° |
| 2026-04-23 01:03 | 38.96245 | -78.23824 | 26080 ft | 398 kts | 278° |
| 2026-04-23 01:04 | 38.96442 | -78.27373 | 26475 ft | 397 kts | 279° |
| 2026-04-23 01:04 | 38.96672 | -78.30910 | 26684 ft | 401 kts | 279° |
| 2026-04-23 01:04 | 38.97135 | -78.38060 | 27309 ft | 403 kts | 279° |
| 2026-04-23 01:05 | 38.97362 | -78.41619 | 27602 ft | 405 kts | 279° |
| 2026-04-23 01:05 | 38.97593 | -78.45233 | 27887 ft | 406 kts | 280° |
| 2026-04-23 01:05 | 38.97822 | -78.48862 | 28172 ft | 408 kts | 279° |
| 2026-04-23 01:05 | 38.98051 | -78.52506 | 28489 ft | 409 kts | 280° |
| 2026-04-23 01:06 | 38.98281 | -78.56156 | 28718 ft | 411 kts | 280° |
| 2026-04-23 01:06 | 38.98511 | -78.59837 | 28985 ft | 413 kts | 280° |
| 2026-04-23 01:06 | 38.98740 | -78.63521 | 29256 ft | 414 kts | 280° |
| 2026-04-23 01:06 | 38.98967 | -78.67210 | 29515 ft | 416 kts | 280° |
| 2026-04-23 01:07 | 38.99196 | -78.70933 | 29774 ft | 417 kts | 280° |
| 2026-04-23 01:07 | 38.99424 | -78.74656 | 30071 ft | 417 kts | 280° |
| 2026-04-23 01:07 | 38.99651 | -78.78387 | 30335 ft | 417 kts | 280° |
| 2026-04-23 01:07 | 38.99875 | -78.82097 | 30614 ft | 416 kts | 280° |
| 2026-04-23 01:08 | 39.00098 | -78.85809 | 30886 ft | 416 kts | 280° |
| 2026-04-23 01:08 | 39.00317 | -78.89469 | 31103 ft | 416 kts | 280° |
| 2026-04-23 01:08 | 39.00541 | -78.93222 | 31351 ft | 415 kts | 280° |
| 2026-04-23 01:08 | 39.00759 | -78.96912 | 31604 ft | 415 kts | 280° |
| 2026-04-23 01:09 | 39.00974 | -79.00566 | 31850 ft | 414 kts | 280° |
| 2026-04-23 01:09 | 39.01191 | -79.04258 | 32053 ft | 415 kts | 280° |
| 2026-04-23 01:09 | 39.01628 | -79.11760 | 32064 ft | 425 kts | 280° |
| 2026-04-23 01:10 | 39.02096 | -79.19424 | 32071 ft | 435 kts | 280° |
| 2026-04-23 01:10 | 39.02617 | -79.27289 | 32072 ft | 446 kts | 280° |
| 2026-04-23 01:11 | 39.03138 | -79.35314 | 32083 ft | 454 kts | 280° |
| 2026-04-23 01:11 | 39.03661 | -79.43454 | 32092 ft | 458 kts | 279° |
| 2026-04-23 01:12 | 39.04182 | -79.51652 | 32103 ft | 461 kts | 279° |
| 2026-04-23 01:12 | 39.04697 | -79.59839 | 32108 ft | 463 kts | 279° |
| 2026-04-23 01:13 | 39.05210 | -79.68118 | 32117 ft | 464 kts | 279° |
| 2026-04-23 01:13 | 39.05719 | -79.76412 | 32111 ft | 465 kts | 279° |
| 2026-04-23 01:14 | 39.06225 | -79.84735 | 32107 ft | 466 kts | 279° |
| 2026-04-23 01:14 | 39.06723 | -79.93045 | 32111 ft | 467 kts | 279° |
| 2026-04-23 01:15 | 39.07217 | -80.01384 | 32106 ft | 467 kts | 279° |
| 2026-04-23 01:15 | 39.07703 | -80.09692 | 32083 ft | 468 kts | 279° |
| 2026-04-23 01:16 | 39.08186 | -80.18043 | 32064 ft | 468 kts | 279° |
| 2026-04-23 01:16 | 39.08665 | -80.26396 | 32074 ft | 468 kts | 279° |
| 2026-04-23 01:17 | 39.09124 | -80.34766 | 32070 ft | 468 kts | 279° |
| 2026-04-23 01:17 | 39.09576 | -80.43129 | 32064 ft | 468 kts | 279° |
| 2026-04-23 01:18 | 39.10022 | -80.51496 | 32061 ft | 469 kts | 278° |
| 2026-04-23 01:18 | 39.10463 | -80.59870 | 32055 ft | 468 kts | 278° |
| 2026-04-23 01:19 | 39.10896 | -80.68231 | 32054 ft | 468 kts | 278° |
| 2026-04-23 01:19 | 39.11323 | -80.76584 | 31979 ft | 458 kts | 278° |
| 2026-04-23 01:20 | 39.11526 | -80.80624 | 31623 ft | 447 kts | 279° |
| 2026-04-23 01:20 | 39.11726 | -80.84576 | 31270 ft | 437 kts | 279° |
| 2026-04-23 01:20 | 39.11919 | -80.88443 | 30896 ft | 429 kts | 279° |
| 2026-04-23 01:20 | 39.12107 | -80.92216 | 30406 ft | 428 kts | 278° |
| 2026-04-23 01:21 | 39.12296 | -80.96059 | 30036 ft | 431 kts | 278° |
| 2026-04-23 01:21 | 39.12485 | -80.99914 | 29634 ft | 431 kts | 278° |
| 2026-04-23 01:21 | 39.12674 | -81.03775 | 29243 ft | 430 kts | 278° |
| 2026-04-23 01:21 | 39.12869 | -81.07602 | 28864 ft | 426 kts | 280° |
| 2026-04-23 01:22 | 39.13503 | -81.11264 | 28356 ft | 414 kts | 296° |
| 2026-04-23 01:22 | 39.14638 | -81.14649 | 27950 ft | 412 kts | 294° |
| 2026-04-23 01:22 | 39.15651 | -81.18104 | 27492 ft | 410 kts | 294° |
| 2026-04-23 01:22 | 39.16666 | -81.21535 | 27045 ft | 408 kts | 294° |
| 2026-04-23 01:23 | 39.17681 | -81.24929 | 26605 ft | 405 kts | 294° |
| 2026-04-23 01:23 | 39.18700 | -81.28315 | 26154 ft | 403 kts | 294° |
| 2026-04-23 01:23 | 39.19712 | -81.31674 | 25721 ft | 402 kts | 294° |
| 2026-04-23 01:23 | 39.20712 | -81.34994 | 25300 ft | 400 kts | 294° |
| 2026-04-23 01:24 | 39.21716 | -81.38330 | 24883 ft | 398 kts | 294° |
| 2026-04-23 01:24 | 39.22718 | -81.41663 | 24464 ft | 396 kts | 293° |
| 2026-04-23 01:24 | 39.23710 | -81.44969 | 24061 ft | 394 kts | 293° |
| 2026-04-23 01:24 | 39.24696 | -81.48259 | 23654 ft | 392 kts | 293° |
| 2026-04-23 01:25 | 39.25676 | -81.51532 | 23169 ft | 390 kts | 293° |
| 2026-04-23 01:25 | 39.26650 | -81.54789 | 22692 ft | 388 kts | 293° |
| 2026-04-23 01:25 | 39.27619 | -81.58031 | 22172 ft | 385 kts | 293° |
| 2026-04-23 01:25 | 39.28578 | -81.61245 | 21674 ft | 382 kts | 293° |
| 2026-04-23 01:26 | 39.29528 | -81.64433 | 21203 ft | 379 kts | 293° |
| 2026-04-23 01:26 | 39.30469 | -81.67597 | 20723 ft | 377 kts | 292° |
| 2026-04-23 01:26 | 39.31408 | -81.70755 | 20255 ft | 376 kts | 292° |
| 2026-04-23 01:26 | 39.32342 | -81.73900 | 19800 ft | 374 kts | 292° |
| 2026-04-23 01:27 | 39.33269 | -81.77025 | 19345 ft | 372 kts | 292° |
| 2026-04-23 01:27 | 39.34176 | -81.80088 | 18908 ft | 370 kts | 292° |
| 2026-04-23 01:27 | 39.35092 | -81.83182 | 18478 ft | 368 kts | 293° |
| 2026-04-23 01:27 | 39.36003 | -81.86265 | 18004 ft | 366 kts | 293° |
| 2026-04-23 01:28 | 39.36901 | -81.89308 | 17477 ft | 366 kts | 292° |
| 2026-04-23 01:28 | 39.37805 | -81.92375 | 16958 ft | 366 kts | 292° |
| 2026-04-23 01:28 | 39.38707 | -81.95438 | 16479 ft | 364 kts | 292° |
| 2026-04-23 01:28 | 39.39611 | -81.98507 | 16006 ft | 363 kts | 292° |
| 2026-04-23 01:29 | 39.40507 | -82.01559 | 15515 ft | 363 kts | 292° |
| 2026-04-23 01:29 | 39.41403 | -82.04610 | 15020 ft | 363 kts | 292° |
| 2026-04-23 01:29 | 39.42295 | -82.07653 | 14604 ft | 360 kts | 292° |
| 2026-04-23 01:29 | 39.43180 | -82.10673 | 14147 ft | 360 kts | 292° |
| 2026-04-23 01:30 | 39.44068 | -82.13709 | 13674 ft | 359 kts | 291° |
| 2026-04-23 01:30 | 39.44948 | -82.16722 | 13169 ft | 358 kts | 291° |
| 2026-04-23 01:30 | 39.45827 | -82.19733 | 12678 ft | 357 kts | 291° |
| 2026-04-23 01:30 | 39.46703 | -82.22739 | 12192 ft | 356 kts | 291° |
| 2026-04-23 01:31 | 39.47574 | -82.25728 | 11716 ft | 354 kts | 291° |
| 2026-04-23 01:31 | 39.48442 | -82.28708 | 11246 ft | 353 kts | 291° |
| 2026-04-23 01:31 | 39.49306 | -82.31678 | 10786 ft | 351 kts | 291° |
| 2026-04-23 01:31 | 39.50443 | -82.34457 | 10280 ft | 349 kts | 309° |
| 2026-04-23 01:32 | 39.52305 | -82.36300 | 9856 ft | 338 kts | 335° |
| 2026-04-23 01:32 | 39.54436 | -82.37266 | 10019 ft | 306 kts | 336° |
| 2026-04-23 01:32 | 39.56337 | -82.38291 | 9980 ft | 284 kts | 335° |
| 2026-04-23 01:32 | 39.58096 | -82.39245 | 9920 ft | 268 kts | 334° |
| 2026-04-23 01:33 | 39.59791 | -82.40160 | 9780 ft | 266 kts | 334° |
| 2026-04-23 01:33 | 39.61502 | -82.41080 | 9661 ft | 266 kts | 334° |
| 2026-04-23 01:33 | 39.63215 | -82.42000 | 9524 ft | 266 kts | 334° |
| 2026-04-23 01:33 | 39.64921 | -82.42916 | 9374 ft | 264 kts | 334° |
| 2026-04-23 01:34 | 39.66617 | -82.43827 | 9219 ft | 264 kts | 334° |
| 2026-04-23 01:34 | 39.68312 | -82.44737 | 9002 ft | 263 kts | 334° |
| 2026-04-23 01:34 | 39.69999 | -82.45644 | 8773 ft | 262 kts | 334° |
| 2026-04-23 01:34 | 39.71681 | -82.46548 | 8569 ft | 261 kts | 334° |
| 2026-04-23 01:35 | 39.73317 | -82.47538 | 8339 ft | 258 kts | 324° |
| 2026-04-23 01:35 | 39.74743 | -82.48924 | 8151 ft | 256 kts | 320° |
| 2026-04-23 01:35 | 39.75673 | -82.49860 | 8004 ft | 255 kts | 320° |
| 2026-04-23 01:35 | 39.77086 | -82.51274 | 7817 ft | 255 kts | 320° |
| 2026-04-23 01:36 | 39.78950 | -82.53130 | 7473 ft | 253 kts | 320° |
| 2026-04-23 01:36 | 39.79896 | -82.54070 | 7322 ft | 253 kts | 320° |
| 2026-04-23 01:36 | 39.81273 | -82.55438 | 7064 ft | 244 kts | 320° |
| 2026-04-23 01:36 | 39.82595 | -82.56752 | 6798 ft | 235 kts | 320° |
| 2026-04-23 01:37 | 39.83871 | -82.58021 | 6498 ft | 226 kts | 320° |
| 2026-04-23 01:37 | 39.85101 | -82.59246 | 6217 ft | 219 kts | 320° |
| 2026-04-23 01:37 | 39.86283 | -82.60424 | 5933 ft | 215 kts | 319° |
| 2026-04-23 01:37 | 39.87488 | -82.61625 | 5621 ft | 216 kts | 319° |
| 2026-04-23 01:38 | 39.88686 | -82.62820 | 5298 ft | 217 kts | 319° |
| 2026-04-23 01:38 | 39.89886 | -82.64018 | 4978 ft | 218 kts | 319° |
| 2026-04-23 01:38 | 39.91075 | -82.65209 | 4645 ft | 219 kts | 319° |
| 2026-04-23 01:38 | 39.92281 | -82.66421 | 4329 ft | 220 kts | 319° |
| 2026-04-23 01:39 | 39.93510 | -82.67657 | 3962 ft | 219 kts | 319° |
| 2026-04-23 01:39 | 39.94690 | -82.68841 | 3640 ft | 214 kts | 319° |
| 2026-04-23 01:39 | 39.95858 | -82.70013 | 3313 ft | 210 kts | 319° |
| 2026-04-23 01:39 | 39.96859 | -82.71324 | 3022 ft | 201 kts | 295° |
| 2026-04-23 01:40 | 39.97093 | -82.73068 | 2918 ft | 199 kts | 260° |
| 2026-04-23 01:40 | 39.96441 | -82.74672 | 2968 ft | 209 kts | 226° |
| 2026-04-23 01:40 | 39.95116 | -82.75552 | 3003 ft | 223 kts | 194° |
| 2026-04-23 01:40 | 39.93551 | -82.75353 | 2979 ft | 234 kts | 161° |
| 2026-04-23 01:41 | 39.92243 | -82.74064 | 2971 ft | 241 kts | 128° |
| 2026-04-23 01:41 | 39.91571 | -82.72093 | 2994 ft | 245 kts | 104° |
| 2026-04-23 01:41 | 39.91195 | -82.69918 | 3038 ft | 247 kts | 102° |
| 2026-04-23 01:41 | 39.90834 | -82.67734 | 3017 ft | 247 kts | 102° |
| 2026-04-23 01:42 | 39.90473 | -82.65545 | 3020 ft | 247 kts | 102° |
| 2026-04-23 01:42 | 39.90114 | -82.63358 | 3005 ft | 247 kts | 102° |
| 2026-04-23 01:42 | 39.89757 | -82.61177 | 3009 ft | 247 kts | 102° |
| 2026-04-23 01:42 | 39.89400 | -82.58991 | 3005 ft | 247 kts | 102° |
| 2026-04-23 01:43 | 39.89044 | -82.56814 | 3007 ft | 247 kts | 102° |
| 2026-04-23 01:43 | 39.88687 | -82.54618 | 3017 ft | 247 kts | 102° |
| 2026-04-23 01:43 | 39.88332 | -82.52431 | 2999 ft | 246 kts | 102° |
| 2026-04-23 01:43 | 39.88237 | -82.50229 | 2925 ft | 244 kts | 75° |
| 2026-04-23 01:44 | 39.89067 | -82.48405 | 2799 ft | 231 kts | 32° |
| 2026-04-23 01:44 | 39.90510 | -82.47785 | 2945 ft | 216 kts | 349° |
| 2026-04-23 01:44 | 39.91831 | -82.48517 | 3043 ft | 207 kts | 316° |
| 2026-04-23 01:44 | 39.92889 | -82.49826 | 3088 ft | 212 kts | 312° |
| 2026-04-23 01:45 | 39.93925 | -82.51167 | 2990 ft | 207 kts | 312° |
| 2026-04-23 01:45 | 39.94750 | -82.52668 | 2962 ft | 203 kts | 294° |
| 2026-04-23 01:45 | 39.95338 | -82.54341 | 3009 ft | 204 kts | 292° |
| 2026-04-23 01:45 | 39.95908 | -82.56034 | 2992 ft | 204 kts | 292° |
| 2026-04-23 01:46 | 39.96477 | -82.57729 | 2982 ft | 204 kts | 292° |
| 2026-04-23 01:46 | 39.97047 | -82.59423 | 2975 ft | 204 kts | 292° |
| 2026-04-23 01:46 | 39.97585 | -82.61105 | 2950 ft | 199 kts | 287° |
| 2026-04-23 01:46 | 39.97792 | -82.62871 | 2938 ft | 198 kts | 272° |
| 2026-04-23 01:47 | 39.97864 | -82.64673 | 3039 ft | 200 kts | 274° |
| 2026-04-23 01:47 | 39.97968 | -82.66468 | 3021 ft | 195 kts | 275° |
| 2026-04-23 01:47 | 39.98074 | -82.68211 | 2935 ft | 190 kts | 274° |
| 2026-04-23 01:47 | 39.98174 | -82.69919 | 2894 ft | 189 kts | 274° |
| 2026-04-23 01:48 | 39.98272 | -82.71625 | 2903 ft | 190 kts | 274° |
| 2026-04-23 01:48 | 39.98370 | -82.73343 | 2806 ft | 187 kts | 274° |
| 2026-04-23 01:48 | 39.98465 | -82.75015 | 2624 ft | 185 kts | 274° |
| 2026-04-23 01:48 | 39.98559 | -82.76678 | 2417 ft | 177 kts | 274° |
| 2026-04-23 01:49 | 39.98647 | -82.78226 | 2212 ft | 166 kts | 274° |
| 2026-04-23 01:49 | 39.98727 | -82.79638 | 2011 ft | 147 kts | 273° |
| 2026-04-23 01:49 | 39.98801 | -82.80941 | 1827 ft | 142 kts | 273° |
| 2026-04-23 01:49 | 39.98874 | -82.82227 | 1622 ft | 144 kts | 273° |
| 2026-04-23 01:50 | 39.98948 | -82.83546 | 1460 ft | 148 kts | 274° |
| 2026-04-23 01:50 | 39.99024 | -82.84891 | 1208 ft | 152 kts | 274° |
| 2026-04-23 01:50 | 39.99103 | -82.86283 | 1020 ft | 155 kts | 274° |
| 2026-04-23 01:50 | 39.99176 | -82.87683 | 820 ft | 148 kts | 273° |
| 2026-04-23 01:51 | 39.99222 | -82.88549 | 826 ft | 68 kts | 275° |
| 2026-04-23 01:51 | 39.99260 | -82.89117 | 825 ft | 51 kts | 275° |
| 2026-04-23 01:51 | 39.99324 | -82.89518 | 825 ft | 40 kts | 297° |
| 2026-04-23 01:51 | 39.99426 | -82.89700 | 826 ft | 19 kts | 336° |
| 2026-04-23 01:52 | 39.99464 | -82.89684 | 826 ft | 2 kts | 66° |
| 2026-04-23 01:52 | 39.99470 | -82.89613 | 826 ft | 17 kts | 90° |
| 2026-04-23 01:52 | 39.99461 | -82.89428 | 828 ft | 21 kts | 95° |
| 2026-04-23 01:52 | 39.99450 | -82.89239 | 826 ft | 21 kts | 92° |
| 2026-04-23 01:53 | 39.99477 | -82.89185 | 825 ft | 4 kts | 23° |
| 2026-04-23 01:53 | 39.99527 | -82.89173 | 826 ft | 14 kts | 17° |
| 2026-04-23 01:53 | 39.99551 | -82.89071 | 825 ft | 13 kts | 94° |
| 2026-04-23 01:53 | 39.99547 | -82.88960 | 824 ft | 12 kts | 93° |
| 2026-04-23 01:54 | 39.99594 | -82.88895 | 822 ft | 11 kts | 29° |
| 2026-04-23 01:54 | 39.99610 | -82.88814 | 822 ft | 9 kts | 94° |
| 2026-04-23 01:54 | 39.99605 | -82.88715 | 822 ft | 14 kts | 94° |
| 2026-04-23 01:54 | 39.99594 | -82.88556 | 822 ft | 21 kts | 95° |
| 2026-04-23 01:55 | 39.99594 | -82.88364 | 821 ft | 19 kts | 69° |
| 2026-04-23 01:55 | 39.99639 | -82.88201 | 822 ft | 19 kts | 51° |
| 2026-04-23 01:55 | 39.99712 | -82.88159 | 824 ft | 2 kts | 2° |
| 2026-04-23 01:55 | 39.99723 | -82.88158 | 824 ft | 1 kts | 5° |
| 2026-04-23 01:56 | 39.99739 | -82.88156 | 824 ft | 5 kts | 5° |
| 2026-04-23 01:56 | 39.99747 | -82.88155 | 824 ft | 0 kts | 5° |